PAL276 RPLL-RKSI
Flight info
| Callsign | PAL276 |
|---|---|
| Flight time | N/A |
| Altitude | 36000 |
| Route | CAB2R CAB B462 LAO/N0492F370 M646 POTIB Q14 TNN W4 ANLOT B1 APU DCT DRAKE Q11 WP900 L4 LIPLO Y741 ATOTI Y722 OLMEN OLMEN2E |
| Aircraft | B77W/H-SDE1E2E3FGHIJ2J3J4J5M1RWXY/LB1D1 |
Departure
| Time | 2026-05-01 13:33 |
|---|---|
| Airport | Ninoy Aquino International Airport (RPLL) |
Arrival
| Time | N/A |
|---|---|
| Airport | Incheon International Airport (RKSI) |
| Time | Latitude | Longitude | Altitude | Speed | Heading |
|---|---|---|---|---|---|
| 2026-05-01 12:42 | 14.50356 | 121.00360 | 63 ft | 0 kts | 50° |
| 2026-05-01 12:43 | 14.50427 | 121.00516 | 73 ft | 0 kts | 307° |
| 2026-05-01 13:19 | 14.50418 | 121.00529 | 63 ft | 2 kts | 307° |
| 2026-05-01 13:19 | 14.50408 | 121.00543 | 63 ft | 2 kts | 306° |
| 2026-05-01 13:19 | 14.50389 | 121.00570 | 63 ft | 2 kts | 305° |
| 2026-05-01 13:20 | 14.50380 | 121.00584 | 63 ft | 2 kts | 303° |
| 2026-05-01 13:20 | 14.50371 | 121.00599 | 63 ft | 2 kts | 298° |
| 2026-05-01 13:20 | 14.50364 | 121.00614 | 63 ft | 2 kts | 275° |
| 2026-05-01 13:21 | 14.50365 | 121.00625 | 63 ft | 0 kts | 242° |
| 2026-05-01 13:27 | 14.50358 | 121.00612 | 65 ft | 7 kts | 242° |
| 2026-05-01 13:27 | 14.50336 | 121.00570 | 66 ft | 6 kts | 240° |
| 2026-05-01 13:27 | 14.50294 | 121.00496 | 63 ft | 6 kts | 240° |
| 2026-05-01 13:28 | 14.50249 | 121.00415 | 63 ft | 7 kts | 240° |
| 2026-05-01 13:28 | 14.50224 | 121.00371 | 64 ft | 7 kts | 240° |
| 2026-05-01 13:29 | 14.50139 | 121.00336 | 65 ft | 7 kts | 195° |
| 2026-05-01 13:29 | 14.50077 | 121.00256 | 63 ft | 7 kts | 239° |
| 2026-05-01 13:30 | 14.49975 | 121.00074 | 67 ft | 7 kts | 240° |
| 2026-05-01 13:31 | 14.49924 | 120.99984 | 65 ft | 7 kts | 230° |
| 2026-05-01 13:31 | 14.49809 | 121.00037 | 68 ft | 8 kts | 80° |
| 2026-05-01 13:32 | 14.49831 | 121.00087 | 66 ft | 6 kts | 60° |
| 2026-05-01 13:33 | 14.50918 | 121.02060 | 466 ft | 166 kts | 61° |
| 2026-05-01 13:33 | 14.52142 | 121.04049 | 1957 ft | 162 kts | 57° |
| 2026-05-01 13:34 | 14.53487 | 121.05954 | 3255 ft | 170 kts | 60° |
| 2026-05-01 13:34 | 14.54725 | 121.08082 | 4426 ft | 178 kts | 62° |
| 2026-05-01 13:35 | 14.56512 | 121.09935 | 5237 ft | 205 kts | 14° |
| 2026-05-01 13:35 | 14.57974 | 121.09967 | 5652 ft | 213 kts | 358° |
| 2026-05-01 13:35 | 14.61051 | 121.09691 | 6515 ft | 240 kts | 358° |
| 2026-05-01 13:36 | 14.62790 | 121.09537 | 6841 ft | 261 kts | 357° |
| 2026-05-01 13:36 | 14.64675 | 121.09372 | 7192 ft | 283 kts | 358° |
| 2026-05-01 13:36 | 14.68680 | 121.09040 | 9104 ft | 288 kts | 358° |
| 2026-05-01 13:37 | 14.70692 | 121.08874 | 10036 ft | 292 kts | 358° |
| 2026-05-01 13:37 | 14.72045 | 121.08762 | 10530 ft | 300 kts | 358° |
| 2026-05-01 13:37 | 14.74991 | 121.08523 | 10945 ft | 337 kts | 358° |
| 2026-05-01 13:37 | 14.77389 | 121.08329 | 11163 ft | 365 kts | 358° |
| 2026-05-01 13:38 | 14.82682 | 121.07888 | 12307 ft | 393 kts | 357° |
| 2026-05-01 13:38 | 14.85429 | 121.07657 | 13141 ft | 398 kts | 357° |
| 2026-05-01 13:38 | 14.88206 | 121.07423 | 13958 ft | 403 kts | 357° |
| 2026-05-01 13:39 | 14.91013 | 121.07187 | 14700 ft | 407 kts | 357° |
| 2026-05-01 13:39 | 14.93851 | 121.06949 | 15443 ft | 411 kts | 357° |
| 2026-05-01 13:39 | 14.96713 | 121.06709 | 16191 ft | 415 kts | 357° |
| 2026-05-01 13:39 | 14.99608 | 121.06467 | 16924 ft | 419 kts | 356° |
| 2026-05-01 13:40 | 15.02494 | 121.06226 | 17624 ft | 424 kts | 356° |
| 2026-05-01 13:40 | 15.05445 | 121.05979 | 18335 ft | 428 kts | 356° |
| 2026-05-01 13:40 | 15.08434 | 121.05730 | 18948 ft | 432 kts | 356° |
| 2026-05-01 13:40 | 15.11443 | 121.05478 | 19553 ft | 437 kts | 356° |
| 2026-05-01 13:41 | 15.14489 | 121.05224 | 19965 ft | 440 kts | 356° |
| 2026-05-01 13:41 | 15.17554 | 121.04967 | 19926 ft | 442 kts | 356° |
| 2026-05-01 13:41 | 15.20616 | 121.04711 | 20016 ft | 445 kts | 356° |
| 2026-05-01 13:41 | 15.23723 | 121.04451 | 20552 ft | 449 kts | 356° |
| 2026-05-01 13:42 | 15.26846 | 121.04189 | 21208 ft | 451 kts | 356° |
| 2026-05-01 13:42 | 15.29946 | 121.03930 | 21820 ft | 454 kts | 355° |
| 2026-05-01 13:42 | 15.33118 | 121.03664 | 22355 ft | 460 kts | 355° |
| 2026-05-01 13:42 | 15.36321 | 121.03396 | 22882 ft | 464 kts | 355° |
| 2026-05-01 13:43 | 15.39554 | 121.03125 | 23421 ft | 469 kts | 355° |
| 2026-05-01 13:43 | 15.42824 | 121.02851 | 23888 ft | 472 kts | 355° |
| 2026-05-01 13:43 | 15.46111 | 121.02575 | 24363 ft | 475 kts | 355° |
| 2026-05-01 13:43 | 15.49402 | 121.02248 | 24824 ft | 477 kts | 352° |
| 2026-05-01 13:44 | 15.52699 | 121.01724 | 25283 ft | 480 kts | 349° |
| 2026-05-01 13:44 | 15.55998 | 121.01118 | 25721 ft | 483 kts | 348° |
| 2026-05-01 13:44 | 15.59269 | 121.00488 | 26149 ft | 486 kts | 348° |
| 2026-05-01 13:44 | 15.62608 | 120.99843 | 26573 ft | 490 kts | 348° |
| 2026-05-01 13:45 | 15.65968 | 120.99205 | 26990 ft | 493 kts | 348° |
| 2026-05-01 13:45 | 15.69355 | 120.98573 | 27394 ft | 496 kts | 348° |
| 2026-05-01 13:45 | 15.72765 | 120.97946 | 27809 ft | 499 kts | 348° |
| 2026-05-01 13:45 | 15.76191 | 120.97322 | 28207 ft | 502 kts | 348° |
| 2026-05-01 13:46 | 15.79645 | 120.96696 | 28586 ft | 505 kts | 348° |
| 2026-05-01 13:46 | 15.83112 | 120.96069 | 28948 ft | 507 kts | 348° |
| 2026-05-01 13:46 | 15.86591 | 120.95439 | 29310 ft | 510 kts | 348° |
| 2026-05-01 13:46 | 15.90050 | 120.94812 | 29644 ft | 512 kts | 348° |
| 2026-05-01 13:47 | 15.93568 | 120.94174 | 29947 ft | 515 kts | 348° |
| 2026-05-01 13:47 | 15.97106 | 120.93531 | 30248 ft | 516 kts | 347° |
| 2026-05-01 13:47 | 16.00638 | 120.92890 | 30695 ft | 513 kts | 347° |
| 2026-05-01 13:47 | 16.04138 | 120.92255 | 31186 ft | 510 kts | 347° |
| 2026-05-01 13:48 | 16.07629 | 120.91622 | 31585 ft | 508 kts | 347° |
| 2026-05-01 13:48 | 16.11110 | 120.90987 | 31975 ft | 508 kts | 347° |
| 2026-05-01 13:48 | 16.14583 | 120.90353 | 32396 ft | 506 kts | 347° |
| 2026-05-01 13:48 | 16.17998 | 120.89731 | 32822 ft | 504 kts | 347° |
| 2026-05-01 13:49 | 16.21448 | 120.89103 | 33319 ft | 502 kts | 347° |
| 2026-05-01 13:49 | 16.24881 | 120.88478 | 33768 ft | 500 kts | 347° |
| 2026-05-01 13:49 | 16.28303 | 120.87854 | 34105 ft | 500 kts | 347° |
| 2026-05-01 13:49 | 16.31722 | 120.87230 | 34452 ft | 499 kts | 347° |
| 2026-05-01 13:50 | 16.35137 | 120.86607 | 34832 ft | 497 kts | 346° |
| 2026-05-01 13:50 | 16.38553 | 120.85982 | 34946 ft | 501 kts | 346° |
| 2026-05-01 13:50 | 16.41986 | 120.85354 | 34994 ft | 501 kts | 346° |
| 2026-05-01 13:51 | 16.48775 | 120.84113 | 35027 ft | 496 kts | 346° |
| 2026-05-01 13:51 | 16.55553 | 120.82876 | 35025 ft | 494 kts | 346° |
| 2026-05-01 13:52 | 16.62313 | 120.81638 | 35048 ft | 493 kts | 346° |
| 2026-05-01 13:52 | 16.69083 | 120.80397 | 35036 ft | 495 kts | 346° |
| 2026-05-01 13:53 | 16.75862 | 120.79158 | 35048 ft | 495 kts | 346° |
| 2026-05-01 13:53 | 16.85997 | 120.77296 | 35039 ft | 496 kts | 346° |
| 2026-05-01 13:54 | 16.92800 | 120.76047 | 35041 ft | 496 kts | 346° |
| 2026-05-01 13:54 | 16.99597 | 120.74800 | 35035 ft | 496 kts | 346° |
| 2026-05-01 13:55 | 17.06360 | 120.73557 | 35010 ft | 496 kts | 346° |
| 2026-05-01 13:55 | 17.13163 | 120.72305 | 34989 ft | 496 kts | 346° |
| 2026-05-01 13:56 | 17.19960 | 120.71053 | 34985 ft | 496 kts | 346° |
| 2026-05-01 13:56 | 17.26756 | 120.69801 | 34978 ft | 496 kts | 346° |
| 2026-05-01 13:57 | 17.32402 | 120.68761 | 34954 ft | 496 kts | 346° |
| 2026-05-01 13:57 | 17.40290 | 120.67309 | 34975 ft | 495 kts | 346° |
| 2026-05-01 13:58 | 17.47088 | 120.66054 | 34958 ft | 496 kts | 346° |
| 2026-05-01 13:58 | 17.53893 | 120.64799 | 34961 ft | 497 kts | 346° |
| 2026-05-01 13:59 | 17.60702 | 120.63542 | 34943 ft | 497 kts | 346° |
| 2026-05-01 13:59 | 17.67465 | 120.62292 | 34926 ft | 497 kts | 346° |
| 2026-05-01 14:00 | 17.74269 | 120.61033 | 34923 ft | 496 kts | 346° |
| 2026-05-01 14:00 | 17.81072 | 120.59773 | 34924 ft | 496 kts | 346° |
| 2026-05-01 14:01 | 17.87890 | 120.58504 | 34909 ft | 498 kts | 346° |
| 2026-05-01 14:01 | 17.94656 | 120.57254 | 34909 ft | 497 kts | 346° |
| 2026-05-01 14:02 | 18.01462 | 120.55990 | 34908 ft | 496 kts | 346° |
| 2026-05-01 14:02 | 18.08250 | 120.54716 | 34912 ft | 495 kts | 346° |
| 2026-05-01 14:03 | 18.13888 | 120.53656 | 34919 ft | 495 kts | 347° |
| 2026-05-01 14:03 | 18.21909 | 120.53105 | 34909 ft | 502 kts | 0° |
| 2026-05-01 14:04 | 18.28881 | 120.53697 | 34906 ft | 503 kts | 1° |
| 2026-05-01 14:04 | 18.34672 | 120.54219 | 34905 ft | 503 kts | 1° |
| 2026-05-01 14:05 | 18.42785 | 120.54893 | 34927 ft | 503 kts | 1° |
| 2026-05-01 14:05 | 18.49767 | 120.55448 | 34922 ft | 504 kts | 1° |
| 2026-05-01 14:06 | 18.56760 | 120.56006 | 34926 ft | 504 kts | 1° |
| 2026-05-01 14:06 | 18.62574 | 120.56472 | 34926 ft | 504 kts | 1° |
| 2026-05-01 14:07 | 18.70743 | 120.57129 | 34934 ft | 504 kts | 1° |
| 2026-05-01 14:08 | 18.80005 | 120.57883 | 34943 ft | 504 kts | 1° |
| 2026-05-01 14:08 | 18.88169 | 120.58550 | 34942 ft | 504 kts | 1° |
| 2026-05-01 14:09 | 18.95163 | 120.59120 | 34956 ft | 504 kts | 1° |
| 2026-05-01 14:09 | 19.00967 | 120.59594 | 34975 ft | 503 kts | 1° |
| 2026-05-01 14:10 | 19.09083 | 120.60257 | 34961 ft | 504 kts | 1° |
| 2026-05-01 14:10 | 19.14942 | 120.60726 | 34959 ft | 504 kts | 1° |
| 2026-05-01 14:11 | 19.21889 | 120.61267 | 34961 ft | 504 kts | 1° |
| 2026-05-01 14:11 | 19.32377 | 120.62089 | 34965 ft | 504 kts | 1° |
| 2026-05-01 14:12 | 19.39367 | 120.62640 | 34967 ft | 504 kts | 1° |
| 2026-05-01 14:12 | 19.46315 | 120.63193 | 34969 ft | 504 kts | 1° |
| 2026-05-01 14:13 | 19.53302 | 120.63762 | 34973 ft | 504 kts | 1° |
| 2026-05-01 14:13 | 19.60296 | 120.64333 | 34982 ft | 504 kts | 1° |
| 2026-05-01 14:14 | 19.67288 | 120.64903 | 34976 ft | 504 kts | 1° |
| 2026-05-01 14:14 | 19.74235 | 120.65469 | 34979 ft | 504 kts | 1° |
| 2026-05-01 14:15 | 19.81224 | 120.66039 | 34980 ft | 504 kts | 1° |
| 2026-05-01 14:15 | 19.88207 | 120.66608 | 34986 ft | 504 kts | 1° |
| 2026-05-01 14:16 | 19.95203 | 120.67180 | 34975 ft | 504 kts | 1° |
| 2026-05-01 14:16 | 20.02139 | 120.67747 | 34987 ft | 503 kts | 1° |
| 2026-05-01 14:17 | 20.09121 | 120.68318 | 34996 ft | 503 kts | 1° |
| 2026-05-01 14:17 | 20.16104 | 120.68889 | 35002 ft | 503 kts | 1° |
| 2026-05-01 14:18 | 20.23085 | 120.69462 | 34990 ft | 503 kts | 1° |
| 2026-05-01 14:18 | 20.30066 | 120.70034 | 34995 ft | 503 kts | 1° |
| 2026-05-01 14:19 | 20.36998 | 120.70603 | 34993 ft | 503 kts | 1° |
| 2026-05-01 14:19 | 20.44589 | 120.71227 | 34997 ft | 503 kts | 1° |
| 2026-05-01 14:20 | 20.65492 | 120.72948 | 34975 ft | 502 kts | 1° |
| 2026-05-01 14:20 | 20.79454 | 120.74101 | 34802 ft | 504 kts | 1° |
| 2026-05-01 14:21 | 20.93145 | 120.75233 | 34967 ft | 497 kts | 1° |
| 2026-05-01 14:21 | 21.06787 | 120.74203 | 34867 ft | 490 kts | 344° |
| 2026-05-01 14:21 | 21.13831 | 120.72342 | 34970 ft | 486 kts | 343° |
| 2026-05-01 14:22 | 21.23681 | 120.69766 | 35022 ft | 486 kts | 343° |
| 2026-05-01 14:22 | 21.30261 | 120.68084 | 35028 ft | 487 kts | 344° |
| 2026-05-01 14:23 | 21.36804 | 120.66416 | 35020 ft | 486 kts | 344° |
| 2026-05-01 14:23 | 21.43392 | 120.64730 | 35026 ft | 490 kts | 344° |
| 2026-05-01 14:24 | 21.50101 | 120.63013 | 35044 ft | 500 kts | 344° |
| 2026-05-01 14:24 | 21.56928 | 120.61261 | 35013 ft | 509 kts | 345° |
| 2026-05-01 14:25 | 21.63809 | 120.59506 | 35034 ft | 511 kts | 344° |
| 2026-05-01 14:25 | 21.70676 | 120.57753 | 35016 ft | 504 kts | 345° |
| 2026-05-01 14:26 | 21.80918 | 120.55129 | 35026 ft | 504 kts | 344° |
| 2026-05-01 14:27 | 21.87667 | 120.53386 | 35024 ft | 505 kts | 345° |
| 2026-05-01 14:27 | 21.94468 | 120.51625 | 35028 ft | 507 kts | 345° |
| 2026-05-01 14:28 | 22.04774 | 120.48958 | 35026 ft | 509 kts | 345° |
| 2026-05-01 14:28 | 22.11667 | 120.47171 | 35026 ft | 510 kts | 345° |
| 2026-05-01 14:29 | 22.18518 | 120.45394 | 35019 ft | 510 kts | 345° |
| 2026-05-01 14:30 | 22.32321 | 120.41808 | 35013 ft | 510 kts | 345° |
| 2026-05-01 14:31 | 22.42658 | 120.39118 | 35000 ft | 509 kts | 345° |
| 2026-05-01 14:31 | 22.49494 | 120.37336 | 34995 ft | 509 kts | 345° |
| 2026-05-01 14:32 | 22.56370 | 120.35542 | 34996 ft | 508 kts | 345° |
| 2026-05-01 14:32 | 22.63239 | 120.33748 | 34993 ft | 508 kts | 345° |
| 2026-05-01 14:33 | 22.70102 | 120.31954 | 34994 ft | 507 kts | 345° |
| 2026-05-01 14:33 | 22.76916 | 120.30171 | 34996 ft | 507 kts | 345° |
| 2026-05-01 14:34 | 22.83770 | 120.28377 | 35047 ft | 506 kts | 345° |
| 2026-05-01 14:34 | 22.90614 | 120.26591 | 35047 ft | 505 kts | 345° |
| 2026-05-01 14:35 | 22.97443 | 120.24806 | 35048 ft | 505 kts | 345° |
| 2026-05-01 14:35 | 23.04267 | 120.23020 | 35047 ft | 504 kts | 345° |
| 2026-05-01 14:36 | 23.11032 | 120.21588 | 34987 ft | 508 kts | 355° |
| 2026-05-01 14:36 | 23.18083 | 120.22184 | 35020 ft | 513 kts | 11° |
| 2026-05-01 14:37 | 23.24897 | 120.24563 | 35017 ft | 516 kts | 17° |
| 2026-05-01 14:37 | 23.31669 | 120.27147 | 35031 ft | 516 kts | 17° |
| 2026-05-01 14:38 | 23.38440 | 120.29648 | 35037 ft | 517 kts | 16° |
| 2026-05-01 14:38 | 23.45252 | 120.32117 | 35037 ft | 516 kts | 16° |
| 2026-05-01 14:39 | 23.52067 | 120.34591 | 35026 ft | 516 kts | 16° |
| 2026-05-01 14:39 | 23.58864 | 120.37067 | 35029 ft | 515 kts | 16° |
| 2026-05-01 14:40 | 23.65611 | 120.39527 | 35033 ft | 514 kts | 16° |
| 2026-05-01 14:40 | 23.72393 | 120.42002 | 35029 ft | 514 kts | 16° |
| 2026-05-01 14:41 | 23.75775 | 120.43238 | 35038 ft | 513 kts | 16° |
| 2026-05-01 14:41 | 23.79626 | 120.44646 | 35031 ft | 513 kts | 16° |
| 2026-05-01 14:42 | 23.86350 | 120.47121 | 35031 ft | 514 kts | 18° |
| 2026-05-01 14:42 | 23.92773 | 120.50464 | 35015 ft | 517 kts | 28° |
| 2026-05-01 14:43 | 23.98695 | 120.54974 | 35028 ft | 520 kts | 34° |
| 2026-05-01 14:43 | 24.04469 | 120.59726 | 35066 ft | 520 kts | 34° |
| 2026-05-01 14:44 | 24.10267 | 120.64457 | 35066 ft | 520 kts | 34° |
| 2026-05-01 14:44 | 24.18962 | 120.71481 | 35050 ft | 520 kts | 34° |
| 2026-05-01 14:45 | 24.27688 | 120.78533 | 35049 ft | 520 kts | 34° |
| 2026-05-01 14:46 | 24.33505 | 120.83247 | 35067 ft | 520 kts | 34° |
| 2026-05-01 14:46 | 24.42181 | 120.90288 | 35037 ft | 519 kts | 34° |
| 2026-05-01 14:47 | 24.47981 | 120.95002 | 35041 ft | 518 kts | 34° |
| 2026-05-01 14:48 | 24.56668 | 121.02079 | 35053 ft | 519 kts | 34° |
| 2026-05-01 14:48 | 24.65323 | 121.09146 | 35056 ft | 518 kts | 34° |
| 2026-05-01 14:49 | 24.76886 | 121.18612 | 35032 ft | 518 kts | 34° |
| 2026-05-01 14:50 | 24.88397 | 121.28055 | 35022 ft | 517 kts | 34° |
| 2026-05-01 14:51 | 24.97051 | 121.35169 | 35026 ft | 517 kts | 34° |
| 2026-05-01 14:52 | 25.05705 | 121.42297 | 35023 ft | 518 kts | 33° |
| 2026-05-01 14:53 | 25.14321 | 121.49406 | 35022 ft | 518 kts | 33° |
| 2026-05-01 14:53 | 25.19777 | 121.54623 | 35002 ft | 523 kts | 44° |
| 2026-05-01 14:54 | 25.24547 | 121.60696 | 35006 ft | 523 kts | 46° |
| 2026-05-01 14:54 | 25.29291 | 121.66801 | 35022 ft | 523 kts | 46° |
| 2026-05-01 14:55 | 25.34038 | 121.72825 | 35023 ft | 523 kts | 45° |
| 2026-05-01 14:55 | 25.38832 | 121.78881 | 35034 ft | 524 kts | 45° |
| 2026-05-01 14:56 | 25.43626 | 121.84949 | 35038 ft | 524 kts | 45° |
| 2026-05-01 14:56 | 25.48412 | 121.91021 | 35048 ft | 523 kts | 45° |
| 2026-05-01 14:57 | 25.53161 | 121.97055 | 35062 ft | 523 kts | 45° |
| 2026-05-01 14:57 | 25.60385 | 122.06113 | 35059 ft | 521 kts | 41° |
| 2026-05-01 14:58 | 25.65868 | 122.11276 | 35048 ft | 515 kts | 31° |
| 2026-05-01 14:58 | 25.71731 | 122.15751 | 35062 ft | 514 kts | 31° |
| 2026-05-01 14:59 | 25.77619 | 122.20252 | 35082 ft | 515 kts | 31° |
| 2026-05-01 14:59 | 25.83494 | 122.24809 | 35059 ft | 515 kts | 31° |
| 2026-05-01 15:00 | 25.92300 | 122.31687 | 35078 ft | 516 kts | 31° |
| 2026-05-01 15:01 | 25.98132 | 122.36245 | 35080 ft | 516 kts | 31° |
| 2026-05-01 15:01 | 26.04003 | 122.40838 | 35078 ft | 516 kts | 31° |
| 2026-05-01 15:02 | 26.09873 | 122.45436 | 35086 ft | 516 kts | 31° |
| 2026-05-01 15:02 | 26.15746 | 122.50041 | 35082 ft | 516 kts | 31° |
| 2026-05-01 15:03 | 26.21562 | 122.54621 | 35081 ft | 516 kts | 31° |
| 2026-05-01 15:03 | 26.27414 | 122.59249 | 35083 ft | 516 kts | 31° |
| 2026-05-01 15:04 | 26.33269 | 122.63886 | 35081 ft | 516 kts | 31° |
| 2026-05-01 15:04 | 26.39116 | 122.68519 | 35088 ft | 516 kts | 31° |
| 2026-05-01 15:05 | 26.44926 | 122.73129 | 35087 ft | 516 kts | 31° |
| 2026-05-01 15:05 | 26.45917 | 122.73916 | 35089 ft | 516 kts | 31° |
| 2026-05-01 15:06 | 26.48828 | 122.76229 | 35087 ft | 516 kts | 31° |
| 2026-05-01 15:06 | 26.54679 | 122.80880 | 35099 ft | 516 kts | 31° |
| 2026-05-01 15:07 | 26.60497 | 122.85489 | 35098 ft | 517 kts | 31° |
| 2026-05-01 15:07 | 26.66363 | 122.90128 | 35091 ft | 517 kts | 31° |
| 2026-05-01 15:08 | 26.72226 | 122.94776 | 35097 ft | 516 kts | 31° |
| 2026-05-01 15:08 | 26.78091 | 122.99434 | 35104 ft | 517 kts | 31° |
| 2026-05-01 15:09 | 26.83912 | 123.04069 | 35095 ft | 517 kts | 31° |
| 2026-05-01 15:09 | 26.89766 | 123.08745 | 35099 ft | 517 kts | 31° |
| 2026-05-01 15:10 | 26.95623 | 123.13431 | 35101 ft | 517 kts | 31° |
| 2026-05-01 15:10 | 27.04399 | 123.20463 | 35100 ft | 517 kts | 32° |
| 2026-05-01 15:11 | 27.13125 | 123.27468 | 35104 ft | 516 kts | 32° |
| 2026-05-01 15:12 | 27.18967 | 123.32165 | 35116 ft | 517 kts | 32° |
| 2026-05-01 15:12 | 27.49065 | 123.56461 | 35218 ft | 518 kts | 32° |
| 2026-05-01 15:14 | 28.10422 | 124.09998 | 35085 ft | 522 kts | 34° |
| 2026-05-01 15:14 | 28.18909 | 124.17599 | 35124 ft | 520 kts | 34° |
| 2026-05-01 15:15 | 28.30231 | 124.27755 | 35114 ft | 521 kts | 34° |
| 2026-05-01 15:16 | 28.41591 | 124.37977 | 35120 ft | 521 kts | 34° |
| 2026-05-01 15:18 | 28.55762 | 124.50768 | 35132 ft | 522 kts | 34° |
| 2026-05-01 15:19 | 28.67139 | 124.61071 | 35112 ft | 523 kts | 34° |
| 2026-05-01 15:19 | 28.75754 | 124.68551 | 35129 ft | 518 kts | 27° |
| 2026-05-01 15:20 | 28.85438 | 124.73701 | 35126 ft | 509 kts | 14° |
| 2026-05-01 15:21 | 28.92147 | 124.76298 | 35122 ft | 509 kts | 14° |
| 2026-05-01 15:21 | 28.98810 | 124.78873 | 35115 ft | 510 kts | 14° |
| 2026-05-01 15:22 | 29.08860 | 124.82860 | 35113 ft | 510 kts | 14° |
| 2026-05-01 15:22 | 29.15557 | 124.85544 | 35113 ft | 510 kts | 14° |
| 2026-05-01 15:23 | 29.22253 | 124.88229 | 35114 ft | 510 kts | 14° |
| 2026-05-01 15:23 | 29.28906 | 124.90897 | 35111 ft | 510 kts | 14° |
| 2026-05-01 15:24 | 29.35602 | 124.93585 | 35108 ft | 510 kts | 14° |
| 2026-05-01 15:24 | 29.42300 | 124.96277 | 35122 ft | 510 kts | 14° |
| 2026-05-01 15:25 | 29.49007 | 124.98977 | 35095 ft | 511 kts | 14° |
| 2026-05-01 15:25 | 29.55715 | 125.01682 | 35105 ft | 511 kts | 14° |
| 2026-05-01 15:26 | 29.62374 | 125.04371 | 35113 ft | 511 kts | 14° |
| 2026-05-01 15:26 | 29.69092 | 125.07087 | 35107 ft | 512 kts | 14° |
| 2026-05-01 15:27 | 29.75812 | 125.09808 | 35107 ft | 512 kts | 14° |
| 2026-05-01 15:28 | 29.85898 | 125.13899 | 35106 ft | 513 kts | 14° |
| 2026-05-01 15:28 | 29.92585 | 125.16618 | 35106 ft | 513 kts | 14° |
| 2026-05-01 15:29 | 30.02680 | 125.20728 | 35118 ft | 513 kts | 14° |
| 2026-05-01 15:30 | 30.16097 | 125.26221 | 35101 ft | 513 kts | 14° |
| 2026-05-01 15:31 | 30.36275 | 125.34515 | 35100 ft | 513 kts | 14° |
| 2026-05-01 15:32 | 30.49597 | 125.40015 | 35024 ft | 497 kts | 14° |
| 2026-05-01 15:33 | 30.59042 | 125.43934 | 34807 ft | 466 kts | 14° |
| 2026-05-01 15:34 | 30.67941 | 125.47621 | 34644 ft | 440 kts | 13° |